createdAt,value
2019-03-06T00:00:25.148Z,4.44
2019-03-06T00:02:47.613Z,4.45
2019-03-06T00:03:58.860Z,4.45
2019-03-06T00:05:09.578Z,4.46
2019-03-06T00:06:20.801Z,4.47
2019-03-06T00:07:32.069Z,4.47
2019-03-06T00:08:43.324Z,4.47
2019-03-06T00:09:54.652Z,4.49
2019-03-06T00:11:05.869Z,4.49
2019-03-06T00:12:17.077Z,4.50
2019-03-06T00:13:28.316Z,4.50
2019-03-06T00:14:39.547Z,4.51
2019-03-06T00:15:50.783Z,4.50
2019-03-06T00:17:02.020Z,4.51
2019-03-06T00:19:24.657Z,4.50
2019-03-06T00:20:35.905Z,4.49
2019-03-06T00:21:47.131Z,4.49
2019-03-06T00:22:58.377Z,4.49
2019-03-06T00:24:09.611Z,4.50
2019-03-06T00:25:20.829Z,4.50
2019-03-06T00:26:32.043Z,4.50
2019-03-06T00:27:43.276Z,4.50
2019-03-06T00:28:54.645Z,4.51
2019-03-06T00:30:05.865Z,4.51
2019-03-06T00:31:17.091Z,4.51
2019-03-06T00:32:28.327Z,4.53
2019-03-06T00:33:39.534Z,4.54
2019-03-06T00:34:50.772Z,4.54
2019-03-06T00:36:02.002Z,4.55
2019-03-06T00:37:13.233Z,4.57
2019-03-06T00:38:24.752Z,4.57
2019-03-06T00:39:35.955Z,4.59
2019-03-06T00:40:47.187Z,4.59
2019-03-06T00:41:58.408Z,4.60
2019-03-06T00:43:09.630Z,4.62
2019-03-06T00:44:20.853Z,4.62
2019-03-06T00:45:32.101Z,4.63
2019-03-06T00:46:43.298Z,4.64
2019-03-06T00:47:55.528Z,4.64
2019-03-06T00:49:06.759Z,4.65
2019-03-06T00:50:17.998Z,4.66
2019-03-06T00:51:29.261Z,4.65
2019-03-06T00:52:40.632Z,4.66
2019-03-06T00:53:51.868Z,4.66
2019-03-06T00:55:03.369Z,4.66
2019-03-06T00:56:14.666Z,4.68
2019-03-06T00:57:25.889Z,4.68
2019-03-06T00:58:37.119Z,4.69
2019-03-06T00:59:48.343Z,4.69
2019-03-06T01:00:59.575Z,4.70
2019-03-06T01:02:10.783Z,4.70
2019-03-06T01:03:22.007Z,4.71
2019-03-06T01:04:33.237Z,4.71
2019-03-06T01:05:44.656Z,4.70
2019-03-06T01:06:55.919Z,4.71
2019-03-06T01:08:07.147Z,4.71
2019-03-06T01:09:18.376Z,4.71
2019-03-06T01:10:29.632Z,4.72
2019-03-06T01:11:40.895Z,4.72
2019-03-06T01:12:52.086Z,4.72
2019-03-06T01:14:03.318Z,4.72
2019-03-06T01:15:14.642Z,4.73
2019-03-06T01:16:25.877Z,4.73
2019-03-06T01:17:37.084Z,4.72
2019-03-06T01:18:48.317Z,4.73
2019-03-06T01:19:59.540Z,4.73
2019-03-06T01:21:10.772Z,4.74
2019-03-06T01:22:22.978Z,4.74
2019-03-06T01:23:34.206Z,4.74
2019-03-06T01:24:45.419Z,4.75
2019-03-06T01:25:56.660Z,4.75
2019-03-06T01:27:07.885Z,4.75
2019-03-06T01:28:20.098Z,4.75
2019-03-06T01:29:31.339Z,4.75
2019-03-06T01:30:42.630Z,4.75
2019-03-06T01:31:53.861Z,4.76
2019-03-06T01:33:05.063Z,4.76
2019-03-06T01:34:16.279Z,4.76
2019-03-06T01:35:27.512Z,4.76
2019-03-06T01:36:38.752Z,4.78
2019-03-06T01:37:49.970Z,4.77
2019-03-06T01:39:01.184Z,4.78
2019-03-06T01:40:12.408Z,4.77
2019-03-06T01:41:23.626Z,4.78
2019-03-06T01:42:34.860Z,4.80
2019-03-06T01:43:46.078Z,4.80
2019-03-06T01:44:57.289Z,4.80
2019-03-06T01:46:08.641Z,4.80
2019-03-06T01:47:19.885Z,4.80
2019-03-06T01:48:31.130Z,4.81
2019-03-06T01:49:42.357Z,4.81
2019-03-06T01:50:53.573Z,4.81
2019-03-06T01:52:04.818Z,4.82
2019-03-06T01:53:16.068Z,4.83
2019-03-06T01:54:27.274Z,4.82
2019-03-06T01:55:38.495Z,4.82
2019-03-06T01:56:49.722Z,4.83
2019-03-06T01:58:00.954Z,4.83
2019-03-06T01:59:12.160Z,4.84
2019-03-06T02:00:23.380Z,4.83
2019-03-06T02:01:34.628Z,4.84
2019-03-06T02:02:45.844Z,4.84
2019-03-06T02:03:57.072Z,4.84
2019-03-06T02:05:08.289Z,4.84
2019-03-06T02:06:19.498Z,4.85
2019-03-06T02:07:30.725Z,4.84
2019-03-06T02:08:41.941Z,4.84
2019-03-06T02:09:53.186Z,4.84
2019-03-06T02:11:04.406Z,4.85
2019-03-06T02:12:15.630Z,4.85
2019-03-06T02:13:26.839Z,4.85
2019-03-06T02:14:38.048Z,4.85
2019-03-06T02:15:49.270Z,4.86
2019-03-06T02:17:00.637Z,4.86
2019-03-06T02:18:11.894Z,4.86
2019-03-06T02:19:23.101Z,4.87
2019-03-06T02:20:34.303Z,4.87
2019-03-06T02:21:45.515Z,4.87
2019-03-06T02:22:56.763Z,4.88
2019-03-06T02:24:07.966Z,4.88
2019-03-06T02:25:19.206Z,4.88
2019-03-06T02:26:30.425Z,4.90
2019-03-06T02:27:41.647Z,4.89
2019-03-06T02:28:52.871Z,4.90
2019-03-06T02:30:04.086Z,4.90
2019-03-06T02:31:15.317Z,4.91
2019-03-06T02:32:26.627Z,4.91
2019-03-06T02:33:37.861Z,4.93
2019-03-06T02:34:49.084Z,4.95
2019-03-06T02:36:00.308Z,4.95
2019-03-06T02:37:11.521Z,4.97
2019-03-06T02:38:22.762Z,4.97
2019-03-06T02:39:33.978Z,4.98
2019-03-06T02:40:45.197Z,4.97
2019-03-06T02:41:56.411Z,4.98
2019-03-06T02:43:08.650Z,4.99
2019-03-06T02:44:19.876Z,5.00
2019-03-06T02:45:31.143Z,5.00
2019-03-06T02:46:42.350Z,5.01
2019-03-06T02:47:54.637Z,5.01
2019-03-06T02:49:05.862Z,5.02
2019-03-06T02:50:18.086Z,5.03
2019-03-06T02:51:29.299Z,5.04
2019-03-06T02:52:40.628Z,5.04
2019-03-06T02:53:51.870Z,5.05
2019-03-06T02:55:03.106Z,5.06
2019-03-06T02:56:14.360Z,5.07
2019-03-06T02:57:25.547Z,5.09
2019-03-06T02:58:36.762Z,5.10
2019-03-06T02:59:48.003Z,5.11
2019-03-06T03:00:59.241Z,5.12
2019-03-06T03:02:10.458Z,5.12
2019-03-06T03:03:21.683Z,5.13
2019-03-06T03:04:32.929Z,5.14
2019-03-06T03:05:44.142Z,5.15
2019-03-06T03:06:55.355Z,5.15
2019-03-06T03:08:06.620Z,5.16
2019-03-06T03:09:17.839Z,5.17
2019-03-06T03:10:29.061Z,5.17
2019-03-06T03:11:40.276Z,5.18
2019-03-06T03:12:51.499Z,5.19
2019-03-06T03:14:02.727Z,5.20
2019-03-06T03:15:13.934Z,5.20
2019-03-06T03:16:25.174Z,5.20
2019-03-06T03:17:36.398Z,5.21
2019-03-06T03:18:47.631Z,5.21
2019-03-06T03:19:58.863Z,5.22
2019-03-06T03:21:10.086Z,5.23
2019-03-06T03:22:21.306Z,5.23
2019-03-06T03:23:32.550Z,5.23
2019-03-06T03:24:43.831Z,5.24
2019-03-06T03:25:55.012Z,5.24
2019-03-06T03:27:06.230Z,5.24
2019-03-06T03:28:19.717Z,5.25
2019-03-06T03:29:28.672Z,5.25
2019-03-06T03:30:39.921Z,5.25
2019-03-06T03:31:51.123Z,5.26
2019-03-06T03:33:02.369Z,5.26
2019-03-06T03:34:13.575Z,5.27
2019-03-06T03:35:24.820Z,5.27
2019-03-06T03:36:36.028Z,5.28
2019-03-06T03:37:48.257Z,5.28
2019-03-06T03:38:59.472Z,5.28
2019-03-06T03:40:10.722Z,5.28
2019-03-06T03:41:21.942Z,5.29
2019-03-06T03:42:33.163Z,5.30
2019-03-06T03:43:44.388Z,5.30
2019-03-06T03:44:55.607Z,5.29
2019-03-06T03:46:07.840Z,5.29
2019-03-06T03:47:19.060Z,5.30
2019-03-06T03:48:30.285Z,5.30
2019-03-06T03:49:41.504Z,5.30
2019-03-06T03:50:52.738Z,5.29
2019-03-06T03:52:03.962Z,5.30
2019-03-06T03:53:16.187Z,5.30
2019-03-06T03:54:27.423Z,5.30
2019-03-06T03:55:38.670Z,5.30
2019-03-06T03:56:49.907Z,5.30
2019-03-06T03:58:01.126Z,5.30
2019-03-06T03:59:12.361Z,5.30
2019-03-06T04:01:36.448Z,5.30
2019-03-06T04:02:47.675Z,5.29
2019-03-06T04:03:58.893Z,5.29
2019-03-06T04:05:10.145Z,5.29
2019-03-06T04:06:21.350Z,5.31
2019-03-06T04:07:32.626Z,5.30
2019-03-06T04:08:43.871Z,5.31
2019-03-06T04:09:55.112Z,5.30
2019-03-06T04:11:06.340Z,5.32
2019-03-06T04:12:17.565Z,5.31
2019-03-06T04:13:28.792Z,5.31
2019-03-06T04:14:40.029Z,5.31
2019-03-06T04:15:51.253Z,5.30
2019-03-06T04:17:02.624Z,5.31
2019-03-06T04:18:13.853Z,5.30
2019-03-06T04:19:25.091Z,5.30
2019-03-06T04:20:36.283Z,5.29
2019-03-06T04:21:47.580Z,5.29
2019-03-06T04:22:58.745Z,5.29
2019-03-06T04:24:09.965Z,5.29
2019-03-06T04:25:21.191Z,5.28
2019-03-06T04:26:32.406Z,5.27
2019-03-06T04:27:43.649Z,5.27
2019-03-06T04:28:55.868Z,5.25
2019-03-06T04:30:07.106Z,5.25
2019-03-06T04:31:19.319Z,5.25
2019-03-06T04:32:30.631Z,5.24
2019-03-06T04:33:41.888Z,5.23
2019-03-06T04:34:53.076Z,5.22
2019-03-06T04:36:04.319Z,5.21
2019-03-06T04:37:15.571Z,5.20
2019-03-06T04:38:26.793Z,5.18
2019-03-06T04:39:38.043Z,5.17
2019-03-06T04:40:49.256Z,5.16
2019-03-06T04:42:00.632Z,5.14
2019-03-06T04:43:11.867Z,5.12
2019-03-06T04:44:23.103Z,5.11
2019-03-06T04:45:35.315Z,5.10
2019-03-06T04:46:46.637Z,5.09
2019-03-06T04:47:57.892Z,5.08
2019-03-06T04:49:09.103Z,5.07
2019-03-06T04:50:20.344Z,5.05
2019-03-06T04:51:31.569Z,5.03
2019-03-06T04:52:42.816Z,5.03
2019-03-06T04:53:54.028Z,5.02
2019-03-06T04:55:05.270Z,5.01
2019-03-06T04:56:16.658Z,5.01
2019-03-06T04:57:27.877Z,5.00
2019-03-06T04:58:39.111Z,4.99
2019-03-06T04:59:50.338Z,4.99
2019-03-06T05:01:01.577Z,4.98
2019-03-06T05:02:12.836Z,4.97
2019-03-06T05:03:24.086Z,4.97
2019-03-06T05:04:35.303Z,4.96
2019-03-06T05:05:46.641Z,4.95
2019-03-06T05:06:57.868Z,4.95
2019-03-06T05:08:10.085Z,4.94
2019-03-06T05:09:21.303Z,4.92
2019-03-06T05:10:32.626Z,4.91
2019-03-06T05:11:43.835Z,4.89
2019-03-06T05:12:55.055Z,4.88
2019-03-06T05:14:06.267Z,4.86
2019-03-06T05:15:17.501Z,4.84
2019-03-06T05:16:28.705Z,4.83
2019-03-06T05:17:39.937Z,4.81
2019-03-06T05:18:51.158Z,4.78
2019-03-06T05:20:02.382Z,4.76
2019-03-06T05:21:13.602Z,4.73
2019-03-06T05:22:24.823Z,4.71
2019-03-06T05:23:36.043Z,4.68
2019-03-06T05:24:47.252Z,4.66
2019-03-06T05:25:58.627Z,4.62
2019-03-06T05:27:09.838Z,4.61
2019-03-06T05:28:21.053Z,4.58
2019-03-06T05:29:32.291Z,4.56
2019-03-06T05:30:43.504Z,4.53
2019-03-06T05:31:54.718Z,4.51
2019-03-06T05:33:05.926Z,4.48
2019-03-06T05:34:17.146Z,4.47
2019-03-06T05:35:28.353Z,4.45
2019-03-06T05:36:39.561Z,4.42
2019-03-06T05:37:50.783Z,4.41
2019-03-06T05:39:01.999Z,4.38
2019-03-06T05:40:13.212Z,4.36
2019-03-06T05:41:24.435Z,4.33
2019-03-06T05:42:36.639Z,4.30
2019-03-06T05:43:47.851Z,4.27
2019-03-06T05:44:59.068Z,4.24
2019-03-06T05:46:10.273Z,4.20
2019-03-06T05:47:21.487Z,4.17
2019-03-06T05:48:32.709Z,4.14
2019-03-06T05:49:43.913Z,4.10
2019-03-06T05:50:55.125Z,4.07
2019-03-06T05:52:06.357Z,4.03
2019-03-06T05:53:17.566Z,4.00
2019-03-06T05:54:29.057Z,3.97
2019-03-06T05:55:40.262Z,3.93
2019-03-06T05:56:51.476Z,3.90
2019-03-06T05:58:02.675Z,3.87
2019-03-06T05:59:13.881Z,3.83
2019-03-06T06:00:25.097Z,3.81
2019-03-06T06:01:36.311Z,3.78
2019-03-06T06:02:47.597Z,3.74
2019-03-06T06:03:58.774Z,3.71
2019-03-06T06:05:09.981Z,3.68
2019-03-06T06:06:21.178Z,3.65
2019-03-06T06:07:32.398Z,3.62
2019-03-06T06:08:43.629Z,3.61
2019-03-06T06:09:54.842Z,3.60
2019-03-06T06:11:06.040Z,3.58
2019-03-06T06:12:17.238Z,3.57
2019-03-06T06:13:28.452Z,3.56
2019-03-06T06:14:39.656Z,3.55
2019-03-06T06:15:50.858Z,3.56
2019-03-06T06:17:02.068Z,3.54
2019-03-06T06:18:13.272Z,3.54
2019-03-06T06:19:24.641Z,3.54
2019-03-06T06:20:35.847Z,3.54
2019-03-06T06:21:47.053Z,3.54
2019-03-06T06:22:58.254Z,3.54
2019-03-06T06:24:09.447Z,3.55
2019-03-06T06:25:20.665Z,3.57
2019-03-06T06:26:31.867Z,3.58
2019-03-06T06:27:43.064Z,3.60
2019-03-06T06:28:55.264Z,3.62
2019-03-06T06:30:06.629Z,3.64
2019-03-06T06:31:17.845Z,3.65
2019-03-06T06:32:29.041Z,3.68
2019-03-06T06:33:40.242Z,3.69
2019-03-06T06:34:51.453Z,3.71
2019-03-06T06:36:02.651Z,3.74
2019-03-06T06:37:13.860Z,3.77
2019-03-06T06:38:25.065Z,3.80
2019-03-06T06:39:36.274Z,3.83
2019-03-06T06:40:47.491Z,3.85
2019-03-06T06:41:58.687Z,3.89
2019-03-06T06:43:09.898Z,3.92
2019-03-06T06:44:21.110Z,3.94
2019-03-06T06:45:32.313Z,3.96
2019-03-06T06:46:43.523Z,3.96
2019-03-06T06:47:54.732Z,3.98
2019-03-06T06:49:05.931Z,3.98
2019-03-06T06:50:17.161Z,3.99
2019-03-06T06:51:28.357Z,4.00
2019-03-06T06:52:39.551Z,4.01
2019-03-06T06:53:50.771Z,4.03
2019-03-06T06:55:01.979Z,4.05
2019-03-06T06:56:13.203Z,4.06
2019-03-06T06:57:24.412Z,4.09
2019-03-06T06:58:35.614Z,4.10
2019-03-06T06:59:46.822Z,4.12
2019-03-06T07:00:58.035Z,4.15
2019-03-06T07:02:09.255Z,4.16
2019-03-06T07:03:22.328Z,4.19
2019-03-06T07:04:31.827Z,4.20
2019-03-06T07:05:43.023Z,4.22
2019-03-06T07:06:54.244Z,4.25
2019-03-06T07:08:05.454Z,4.28
2019-03-06T07:09:16.666Z,4.32
2019-03-06T07:10:27.915Z,4.34
2019-03-06T07:11:39.132Z,4.40
2019-03-06T07:12:50.333Z,4.45
2019-03-06T07:14:01.543Z,4.49
2019-03-06T07:15:12.743Z,4.52
2019-03-06T07:16:23.955Z,4.57
2019-03-06T07:17:35.166Z,4.62
2019-03-06T07:18:46.370Z,4.66
2019-03-06T07:19:57.596Z,4.71
2019-03-06T07:21:08.813Z,4.75
2019-03-06T07:22:20.036Z,4.81
2019-03-06T07:23:31.253Z,4.87
2019-03-06T07:24:42.443Z,4.93
2019-03-06T07:25:53.650Z,5.00
2019-03-06T07:27:04.880Z,5.07
2019-03-06T07:28:16.102Z,5.12
2019-03-06T07:29:27.302Z,5.18
2019-03-06T07:30:38.626Z,5.23
2019-03-06T07:31:49.836Z,5.27
2019-03-06T07:33:01.076Z,5.32
2019-03-06T07:34:12.295Z,5.35
2019-03-06T07:35:24.622Z,5.39
2019-03-06T07:36:35.834Z,5.44
2019-03-06T07:37:47.056Z,5.48
2019-03-06T07:38:58.275Z,5.52
2019-03-06T07:40:09.003Z,5.55
2019-03-06T07:41:20.226Z,5.59
2019-03-06T07:42:31.463Z,5.62
2019-03-06T07:43:42.693Z,5.67
2019-03-06T07:44:53.923Z,5.72
2019-03-06T07:46:05.861Z,5.76
2019-03-06T07:47:16.383Z,5.80
2019-03-06T07:48:27.606Z,5.84
2019-03-06T07:49:45.013Z,5.89
2019-03-06T07:50:50.058Z,5.92
2019-03-06T07:52:01.283Z,5.98
2019-03-06T07:53:12.629Z,6.02
2019-03-06T07:54:23.959Z,6.07
2019-03-06T07:55:35.193Z,6.12
2019-03-06T07:56:46.417Z,6.15
2019-03-06T07:57:57.664Z,6.20
2019-03-06T07:59:08.909Z,6.24
2019-03-06T08:00:20.144Z,6.28
2019-03-06T08:01:31.405Z,6.31
2019-03-06T08:02:42.622Z,6.34
2019-03-06T08:03:53.855Z,6.39
2019-03-06T08:05:06.085Z,6.42
2019-03-06T08:06:17.320Z,6.45
2019-03-06T08:07:29.551Z,6.49
2019-03-06T08:08:40.791Z,6.54
2019-03-06T08:09:52.042Z,6.57
2019-03-06T08:11:03.261Z,6.62
2019-03-06T08:12:14.622Z,6.66
2019-03-06T08:13:25.866Z,6.71
2019-03-06T08:14:38.107Z,6.77
2019-03-06T08:15:49.342Z,6.83
2019-03-06T08:17:00.622Z,6.91
2019-03-06T08:18:11.869Z,6.98
2019-03-06T08:19:23.118Z,7.06
2019-03-06T08:20:34.373Z,7.11
2019-03-06T08:21:45.613Z,7.17
2019-03-06T08:22:56.860Z,7.22
2019-03-06T08:24:08.118Z,7.30
2019-03-06T08:25:19.370Z,7.36
2019-03-06T08:26:30.128Z,7.45
2019-03-06T08:27:41.389Z,7.51
2019-03-06T08:28:52.663Z,7.59
2019-03-06T08:30:03.915Z,7.67
2019-03-06T08:31:15.172Z,7.71
2019-03-06T08:32:26.417Z,7.75
2019-03-06T08:33:37.696Z,7.77
2019-03-06T08:34:48.961Z,7.83
2019-03-06T08:36:00.212Z,7.87
2019-03-06T08:37:10.986Z,7.91
2019-03-06T08:38:22.246Z,7.95
2019-03-06T08:39:33.511Z,7.98
2019-03-06T08:40:44.770Z,8.03
2019-03-06T08:41:56.038Z,8.09
2019-03-06T08:43:07.309Z,8.11
2019-03-06T08:44:18.626Z,8.12
2019-03-06T08:45:29.886Z,8.14
2019-03-06T08:46:41.138Z,8.13
2019-03-06T08:47:52.412Z,8.14
2019-03-06T08:49:03.674Z,8.14
2019-03-06T08:50:15.937Z,8.15
2019-03-06T08:51:27.210Z,8.16
2019-03-06T08:52:38.618Z,8.17
2019-03-06T08:53:49.887Z,8.18
2019-03-06T08:55:01.160Z,8.20
2019-03-06T08:56:12.428Z,8.22
2019-03-06T08:57:23.707Z,8.25
2019-03-06T08:58:34.981Z,8.25
2019-03-06T08:59:46.248Z,8.28
2019-03-06T09:00:57.518Z,8.31
2019-03-06T09:02:15.419Z,8.31
2019-03-06T09:03:20.364Z,8.34
2019-03-06T09:04:31.622Z,8.37
2019-03-06T09:05:42.397Z,8.40
2019-03-06T09:06:53.667Z,8.43
2019-03-06T09:08:04.939Z,8.48
2019-03-06T09:09:16.201Z,8.55
2019-03-06T09:10:27.467Z,8.62
2019-03-06T09:11:39.496Z,8.70
2019-03-06T09:12:51.003Z,8.79
2019-03-06T09:14:02.327Z,8.89
2019-03-06T09:15:13.584Z,8.99
2019-03-06T09:16:24.854Z,9.06
2019-03-06T09:17:36.132Z,9.15
2019-03-06T09:18:47.415Z,9.22
2019-03-06T09:19:58.688Z,9.30
2019-03-06T09:21:09.973Z,9.37
2019-03-06T09:22:21.247Z,9.42
2019-03-06T09:23:32.532Z,9.45
2019-03-06T09:24:43.807Z,9.46
2019-03-06T09:25:55.090Z,9.46
2019-03-06T09:27:06.369Z,9.45
2019-03-06T09:28:17.651Z,9.42
2019-03-06T09:29:28.937Z,9.40
2019-03-06T09:30:41.229Z,9.36
2019-03-06T09:31:52.637Z,9.34
2019-03-06T09:34:15.305Z,9.30
2019-03-06T09:35:26.616Z,9.31
2019-03-06T09:36:37.907Z,9.31
2019-03-06T09:37:49.186Z,9.32
2019-03-06T09:39:00.632Z,9.31
2019-03-06T09:40:11.920Z,9.32
2019-03-06T09:41:23.238Z,9.30
2019-03-06T09:42:34.621Z,9.32
2019-03-06T09:43:45.906Z,9.34
2019-03-06T09:44:57.199Z,9.35
2019-03-06T09:46:08.624Z,9.36
2019-03-06T09:47:19.932Z,9.38
2019-03-06T09:48:31.245Z,9.39
2019-03-06T09:49:42.647Z,9.41
2019-03-06T09:50:53.980Z,9.44
2019-03-06T09:52:05.235Z,9.46
2019-03-06T09:53:16.638Z,9.48
2019-03-06T09:54:27.922Z,9.49
2019-03-06T09:55:39.210Z,9.49
2019-03-06T09:56:50.646Z,9.47
2019-03-06T09:58:01.923Z,9.45
2019-03-06T09:59:13.208Z,9.43
2019-03-06T10:00:24.622Z,9.41
2019-03-06T10:01:35.919Z,9.41
2019-03-06T10:02:47.504Z,9.41
2019-03-06T10:03:58.796Z,9.39
2019-03-06T10:05:09.600Z,10.12
2019-03-06T10:06:20.425Z,11.36
2019-03-06T10:07:31.276Z,12.44
2019-03-06T10:08:42.160Z,13.29
2019-03-06T10:09:59.071Z,14.07
2019-03-06T10:11:04.027Z,14.56
2019-03-06T10:12:15.345Z,14.76
2019-03-06T10:13:26.332Z,15.11
2019-03-06T10:14:37.359Z,15.31
2019-03-06T10:15:48.371Z,14.85
2019-03-06T10:16:59.397Z,14.30
2019-03-06T10:18:10.399Z,13.93
2019-03-06T10:19:21.895Z,13.65
2019-03-06T10:20:32.896Z,13.31
2019-03-06T10:21:44.666Z,13.05
2019-03-06T10:22:59.658Z,13.05
2019-03-06T10:24:08.627Z,13.15
2019-03-06T10:25:29.593Z,13.31
2019-03-06T10:26:31.049Z,13.33
2019-03-06T10:27:42.015Z,13.22
2019-03-06T10:28:52.962Z,13.20
2019-03-06T10:30:03.928Z,13.25
2019-03-06T10:31:15.869Z,13.37
2019-03-06T10:32:27.361Z,13.53
2019-03-06T10:33:38.756Z,13.58
2019-03-06T10:34:49.695Z,13.65
2019-03-06T10:36:00.651Z,13.80
2019-03-06T10:37:11.587Z,13.96
2019-03-06T10:38:22.527Z,13.98
2019-03-06T10:39:33.475Z,13.95
2019-03-06T10:40:44.427Z,13.96
2019-03-06T10:41:55.360Z,13.93
2019-03-06T10:43:06.801Z,13.97
2019-03-06T10:44:17.748Z,13.96
2019-03-06T10:45:28.690Z,13.85
2019-03-06T10:46:39.656Z,13.78
2019-03-06T10:47:50.605Z,13.71
2019-03-06T10:49:01.558Z,13.67
2019-03-06T10:50:12.506Z,13.66
2019-03-06T10:51:23.462Z,13.77
2019-03-06T10:52:34.416Z,13.84
2019-03-06T10:53:45.364Z,14.06
2019-03-06T10:54:57.704Z,14.29
2019-03-06T10:56:07.265Z,14.49
2019-03-06T10:57:18.214Z,14.54
2019-03-06T10:58:30.171Z,14.21
2019-03-06T10:59:41.129Z,13.96
2019-03-06T11:00:52.075Z,14.06
2019-03-06T11:02:03.025Z,14.27
2019-03-06T11:03:13.983Z,14.44
2019-03-06T11:04:24.932Z,14.43
2019-03-06T11:05:35.903Z,14.34
2019-03-06T11:06:47.352Z,14.18
2019-03-06T11:07:58.311Z,14.10
2019-03-06T11:09:09.277Z,13.92
2019-03-06T11:10:23.972Z,13.63
2019-03-06T11:11:31.192Z,13.39
2019-03-06T11:12:42.147Z,13.29
2019-03-06T11:13:53.121Z,13.19
2019-03-06T11:15:04.078Z,13.07
2019-03-06T11:16:17.989Z,12.96
2019-03-06T11:17:25.969Z,12.87
2019-03-06T11:18:36.936Z,12.81
2019-03-06T11:19:48.374Z,12.79
2019-03-06T11:20:59.316Z,12.66
2019-03-06T11:22:10.751Z,12.55
2019-03-06T11:23:22.187Z,12.41
2019-03-06T11:24:33.647Z,12.34
2019-03-06T11:25:45.062Z,12.31
2019-03-06T11:26:55.997Z,12.24
2019-03-06T11:28:06.941Z,12.22
2019-03-06T11:29:19.454Z,12.17
2019-03-06T11:30:29.294Z,12.12
2019-03-06T11:31:40.266Z,12.10
2019-03-06T11:32:54.418Z,12.21
2019-03-06T11:34:02.092Z,12.27
2019-03-06T11:35:13.029Z,12.39
2019-03-06T11:36:23.958Z,12.47
2019-03-06T11:37:34.895Z,12.57
2019-03-06T11:38:46.325Z,12.62
2019-03-06T11:39:57.253Z,12.58
2019-03-06T11:41:08.188Z,12.52
2019-03-06T11:42:19.117Z,12.48
2019-03-06T11:43:30.046Z,12.57
2019-03-06T11:44:40.966Z,12.61
2019-03-06T11:45:51.886Z,12.57
2019-03-06T11:47:02.811Z,12.54
2019-03-06T11:48:13.733Z,12.57
2019-03-06T11:49:24.655Z,12.68
2019-03-06T11:50:40.948Z,12.87
2019-03-06T11:51:46.478Z,13.03
2019-03-06T11:52:57.900Z,13.25
2019-03-06T11:54:09.329Z,13.63
2019-03-06T11:55:20.284Z,14.07
2019-03-06T11:56:31.725Z,14.48
2019-03-06T11:57:43.183Z,14.77
2019-03-06T11:58:54.161Z,14.98
2019-03-06T12:00:05.631Z,15.05
2019-03-06T12:01:16.617Z,15.31
2019-03-06T12:02:27.598Z,16.22
2019-03-06T12:03:39.090Z,17.08
2019-03-06T12:04:50.065Z,17.73
2019-03-06T12:06:01.556Z,18.41
2019-03-06T12:07:12.546Z,19.07
2019-03-06T12:08:23.548Z,19.55
2019-03-06T12:09:34.547Z,19.84
2019-03-06T12:10:46.052Z,20.00
2019-03-06T12:11:57.050Z,20.19
2019-03-06T12:13:08.631Z,20.41
2019-03-06T12:14:19.660Z,20.66
2019-03-06T12:15:30.682Z,20.86
2019-03-06T12:16:42.078Z,20.85
2019-03-06T12:17:52.750Z,20.95
2019-03-06T12:19:03.796Z,20.92
2019-03-06T12:20:15.335Z,20.86
2019-03-06T12:21:26.366Z,20.78
2019-03-06T12:22:37.899Z,20.69
2019-03-06T12:23:48.947Z,20.57
2019-03-06T12:25:00.992Z,20.37
2019-03-06T12:26:12.614Z,20.19
2019-03-06T12:27:23.664Z,20.00
2019-03-06T12:28:35.214Z,19.83
2019-03-06T12:29:46.267Z,19.71
2019-03-06T12:30:57.310Z,19.60
2019-03-06T12:32:08.354Z,19.45
2019-03-06T12:33:19.399Z,19.27
2019-03-06T12:34:30.449Z,19.11
2019-03-06T12:35:41.515Z,18.94
2019-03-06T12:36:52.549Z,18.81
2019-03-06T12:38:03.584Z,18.72
2019-03-06T12:39:15.123Z,18.65
2019-03-06T12:40:26.166Z,18.59
2019-03-06T12:41:37.198Z,18.50
2019-03-06T12:42:48.237Z,18.46
2019-03-06T12:43:59.271Z,18.40
2019-03-06T12:45:10.312Z,18.27
2019-03-06T12:46:23.962Z,18.17
2019-03-06T12:47:33.366Z,18.09
2019-03-06T12:48:44.890Z,18.01
2019-03-06T12:49:55.911Z,17.90
2019-03-06T12:51:07.936Z,17.78
2019-03-06T12:52:19.454Z,17.62
2019-03-06T12:53:30.959Z,17.47
2019-03-06T12:54:42.634Z,17.29
2019-03-06T12:55:53.659Z,17.11
2019-03-06T12:57:04.672Z,16.92
2019-03-06T12:58:16.189Z,16.76
2019-03-06T12:59:27.190Z,16.56
2019-03-06T13:00:38.193Z,16.41
2019-03-06T13:01:49.200Z,16.26
2019-03-06T13:03:00.185Z,16.12
2019-03-06T13:04:11.172Z,16.01
2019-03-06T13:05:22.172Z,15.96
2019-03-06T13:06:33.157Z,15.93
2019-03-06T13:07:44.656Z,15.92
2019-03-06T13:08:56.543Z,15.89
2019-03-06T13:10:06.615Z,15.88
2019-03-06T13:11:17.784Z,15.87
2019-03-06T13:12:29.302Z,15.86
2019-03-06T13:13:40.246Z,15.86
2019-03-06T13:14:51.721Z,15.85
2019-03-06T13:16:02.699Z,15.84
2019-03-06T13:17:14.174Z,15.83
2019-03-06T13:18:25.161Z,15.82
2019-03-06T13:19:36.134Z,15.80
2019-03-06T13:20:47.102Z,15.72
2019-03-06T13:21:58.067Z,15.64
2019-03-06T13:23:09.032Z,15.61
2019-03-06T13:24:20.622Z,15.56
2019-03-06T13:25:31.586Z,15.53
2019-03-06T13:26:42.547Z,15.53
2019-03-06T13:27:55.186Z,15.53
2019-03-06T13:29:04.629Z,15.53
2019-03-06T13:30:15.877Z,15.49
2019-03-06T13:31:27.041Z,15.39
2019-03-06T13:32:38.498Z,15.25
2019-03-06T13:33:49.952Z,15.09
2019-03-06T13:35:01.394Z,14.94
2019-03-06T13:36:12.463Z,14.77
2019-03-06T13:37:23.295Z,14.62
2019-03-06T13:38:34.241Z,14.50
2019-03-06T13:39:45.198Z,14.39
2019-03-06T13:40:56.151Z,14.32
2019-03-06T13:42:07.089Z,14.27
2019-03-06T13:43:18.030Z,14.22
2019-03-06T13:44:29.459Z,14.18
2019-03-06T13:45:41.402Z,14.15
2019-03-06T13:46:52.327Z,14.15
2019-03-06T13:48:03.261Z,14.15
2019-03-06T13:49:14.185Z,14.14
2019-03-06T13:50:25.605Z,14.12
2019-03-06T13:51:36.535Z,14.07
2019-03-06T13:52:47.455Z,14.04
2019-03-06T13:53:59.379Z,14.02
2019-03-06T13:55:10.301Z,14.02
2019-03-06T13:56:22.226Z,14.02
2019-03-06T13:57:33.654Z,14.05
2019-03-06T13:58:45.070Z,14.08
2019-03-06T13:59:55.992Z,14.17
2019-03-06T14:01:06.928Z,14.30
2019-03-06T14:02:17.862Z,14.46
2019-03-06T14:03:28.780Z,14.65
2019-03-06T14:04:39.694Z,14.88
2019-03-06T14:05:50.620Z,15.06
2019-03-06T14:07:02.656Z,15.26
2019-03-06T14:08:14.084Z,15.46
2019-03-06T14:09:25.034Z,15.61
2019-03-06T14:10:35.956Z,15.72
2019-03-06T14:11:46.891Z,15.81
2019-03-06T14:12:58.327Z,15.84
2019-03-06T14:14:10.267Z,15.79
2019-03-06T14:15:21.209Z,15.75
2019-03-06T14:16:32.180Z,15.67
2019-03-06T14:17:43.125Z,15.61
2019-03-06T14:18:54.073Z,15.55
2019-03-06T14:20:05.573Z,15.49
2019-03-06T14:21:17.017Z,15.47
2019-03-06T14:22:27.972Z,15.46
2019-03-06T14:23:38.910Z,15.50
2019-03-06T14:24:49.851Z,15.59
2019-03-06T14:26:00.784Z,15.71
2019-03-06T14:27:11.735Z,15.88
2019-03-06T14:28:22.680Z,15.97
2019-03-06T14:29:33.631Z,16.05
2019-03-06T14:30:44.586Z,16.05
2019-03-06T14:31:56.017Z,16.00
2019-03-06T14:33:07.458Z,15.92
2019-03-06T14:34:18.403Z,15.81
2019-03-06T14:35:29.836Z,15.65
2019-03-06T14:36:40.791Z,15.49
2019-03-06T14:37:52.233Z,15.33
2019-03-06T14:39:03.178Z,15.22
2019-03-06T14:40:14.119Z,15.15
2019-03-06T14:41:25.056Z,15.09
2019-03-06T14:42:36.997Z,15.06
2019-03-06T14:43:47.953Z,15.05
2019-03-06T14:44:58.884Z,15.02
2019-03-06T14:46:16.218Z,15.02
2019-03-06T14:47:20.774Z,15.04
2019-03-06T14:48:31.708Z,15.07
2019-03-06T14:49:42.650Z,15.07
2019-03-06T14:50:53.581Z,15.07
2019-03-06T14:52:07.479Z,15.07
2019-03-06T14:53:15.446Z,15.10
2019-03-06T14:54:26.882Z,15.11
2019-03-06T14:55:38.316Z,15.11
2019-03-06T14:56:49.241Z,15.11
2019-03-06T14:58:00.180Z,15.13
2019-03-06T14:59:11.112Z,15.15
2019-03-06T15:00:22.625Z,15.20
2019-03-06T15:01:33.563Z,15.27
2019-03-06T15:02:45.002Z,15.28
2019-03-06T15:03:55.935Z,15.30
2019-03-06T15:05:06.880Z,15.37
2019-03-06T15:06:18.314Z,15.47
2019-03-06T15:07:29.253Z,15.58
2019-03-06T15:08:40.186Z,15.68
2019-03-06T15:09:51.122Z,15.80
2019-03-06T15:11:02.051Z,15.92
2019-03-06T15:12:12.981Z,15.97
2019-03-06T15:13:24.923Z,15.99
2019-03-06T15:14:37.893Z,15.94
2019-03-06T15:15:47.790Z,15.90
2019-03-06T15:16:58.730Z,15.89
2019-03-06T15:18:10.903Z,15.86
2019-03-06T15:19:21.102Z,15.84
2019-03-06T15:20:33.037Z,15.80
2019-03-06T15:21:43.970Z,15.73
2019-03-06T15:22:54.916Z,15.69
2019-03-06T15:24:06.366Z,15.61
2019-03-06T15:25:17.790Z,15.51
2019-03-06T15:26:28.741Z,15.41
2019-03-06T15:27:39.678Z,15.29
2019-03-06T15:28:52.108Z,15.18
2019-03-06T15:30:03.541Z,15.07
2019-03-06T15:31:14.479Z,14.94
2019-03-06T15:32:25.410Z,14.84
2019-03-06T15:33:36.345Z,14.70
2019-03-06T15:34:47.769Z,14.61
2019-03-06T15:35:58.713Z,14.53
2019-03-06T15:37:09.641Z,14.47
2019-03-06T15:38:20.571Z,14.39
2019-03-06T15:39:32.020Z,14.32
2019-03-06T15:40:42.917Z,14.26